sensor_id;sensor_type;location;lat;lon;timestamp;temperature;humidity
22526;DHT22;11429;50.842;4.386;2022-11-12T00:00:40;9.50;99.90
22526;DHT22;11429;50.842;4.386;2022-11-12T00:03:06;9.40;99.90
22526;DHT22;11429;50.842;4.386;2022-11-12T00:05:32;9.40;99.90
22526;DHT22;11429;50.842;4.386;2022-11-12T00:07:58;9.40;99.90
22526;DHT22;11429;50.842;4.386;2022-11-12T00:10:25;9.30;99.90
22526;DHT22;11429;50.842;4.386;2022-11-12T00:12:51;9.30;99.90
22526;DHT22;11429;50.842;4.386;2022-11-12T00:15:17;9.20;99.90
22526;DHT22;11429;50.842;4.386;2022-11-12T00:17:43;9.10;99.90
22526;DHT22;11429;50.842;4.386;2022-11-12T00:20:09;9.10;99.90
22526;DHT22;11429;50.842;4.386;2022-11-12T00:22:35;9.10;99.90
22526;DHT22;11429;50.842;4.386;2022-11-12T00:25:01;9.20;99.90
22526;DHT22;11429;50.842;4.386;2022-11-12T00:27:27;9.30;99.90
22526;DHT22;11429;50.842;4.386;2022-11-12T00:29:52;9.30;99.90
22526;DHT22;11429;50.842;4.386;2022-11-12T00:32:18;9.30;99.90
22526;DHT22;11429;50.842;4.386;2022-11-12T00:34:44;9.20;99.90
22526;DHT22;11429;50.842;4.386;2022-11-12T00:37:10;9.20;99.90
22526;DHT22;11429;50.842;4.386;2022-11-12T00:39:36;9.20;99.90
22526;DHT22;11429;50.842;4.386;2022-11-12T00:42:02;9.20;99.90
22526;DHT22;11429;50.842;4.386;2022-11-12T00:44:28;9.20;99.90
22526;DHT22;11429;50.842;4.386;2022-11-12T00:46:57;9.20;99.90
22526;DHT22;11429;50.842;4.386;2022-11-12T00:49:22;9.20;99.90
22526;DHT22;11429;50.842;4.386;2022-11-12T00:51:48;9.20;99.90
22526;DHT22;11429;50.842;4.386;2022-11-12T00:54:14;9.20;99.90
22526;DHT22;11429;50.842;4.386;2022-11-12T00:56:40;9.10;99.90
22526;DHT22;11429;50.842;4.386;2022-11-12T00:59:06;9.10;99.90
22526;DHT22;11429;50.842;4.386;2022-11-12T01:01:31;9.10;99.90
22526;DHT22;11429;50.842;4.386;2022-11-12T01:03:58;9.20;99.90
22526;DHT22;11429;50.842;4.386;2022-11-12T01:06:24;9.20;99.90
22526;DHT22;11429;50.842;4.386;2022-11-12T01:08:50;9.10;99.90
22526;DHT22;11429;50.842;4.386;2022-11-12T01:11:19;9.20;99.90
22526;DHT22;11429;50.842;4.386;2022-11-12T01:13:47;9.10;99.90
22526;DHT22;11429;50.842;4.386;2022-11-12T01:16:19;9.10;99.90
22526;DHT22;11429;50.842;4.386;2022-11-12T01:18:46;8.90;99.90
22526;DHT22;11429;50.842;4.386;2022-11-12T01:21:13;8.80;99.90
22526;DHT22;11429;50.842;4.386;2022-11-12T01:23:40;8.80;99.90
22526;DHT22;11429;50.842;4.386;2022-11-12T01:26:10;8.80;99.90
22526;DHT22;11429;50.842;4.386;2022-11-12T01:28:36;8.80;99.90
22526;DHT22;11429;50.842;4.386;2022-11-12T01:31:27;8.80;99.90
22526;DHT22;11429;50.842;4.386;2022-11-12T01:33:55;8.80;99.90
22526;DHT22;11429;50.842;4.386;2022-11-12T01:36:21;8.80;99.90
22526;DHT22;11429;50.842;4.386;2022-11-12T01:38:48;8.90;99.90
22526;DHT22;11429;50.842;4.386;2022-11-12T01:41:25;8.90;99.90
22526;DHT22;11429;50.842;4.386;2022-11-12T01:44:12;8.90;99.90
22526;DHT22;11429;50.842;4.386;2022-11-12T01:47:06;8.90;99.90
22526;DHT22;11429;50.842;4.386;2022-11-12T01:52:19;8.70;99.90
22526;DHT22;11429;50.842;4.386;2022-11-12T01:54:49;8.60;99.90
22526;DHT22;11429;50.842;4.386;2022-11-12T01:57:22;8.50;99.90
22526;DHT22;11429;50.842;4.386;2022-11-12T01:59:52;8.50;99.90
22526;DHT22;11429;50.842;4.386;2022-11-12T02:02:20;8.60;99.90
22526;DHT22;11429;50.842;4.386;2022-11-12T02:04:46;8.60;99.90
22526;DHT22;11429;50.842;4.386;2022-11-12T02:07:13;8.60;99.90
22526;DHT22;11429;50.842;4.386;2022-11-12T02:09:39;8.50;99.90
22526;DHT22;11429;50.842;4.386;2022-11-12T02:12:06;8.50;99.90
22526;DHT22;11429;50.842;4.386;2022-11-12T02:14:32;8.50;99.90
22526;DHT22;11429;50.842;4.386;2022-11-12T02:16:59;8.40;99.90
22526;DHT22;11429;50.842;4.386;2022-11-12T02:19:25;8.40;99.90
22526;DHT22;11429;50.842;4.386;2022-11-12T02:21:51;8.40;99.90
22526;DHT22;11429;50.842;4.386;2022-11-12T02:26:49;8.30;99.90
22526;DHT22;11429;50.842;4.386;2022-11-12T02:29:15;8.30;99.90
22526;DHT22;11429;50.842;4.386;2022-11-12T02:31:41;8.30;99.90
22526;DHT22;11429;50.842;4.386;2022-11-12T02:34:07;8.50;99.90
22526;DHT22;11429;50.842;4.386;2022-11-12T02:36:33;8.60;99.90
22526;DHT22;11429;50.842;4.386;2022-11-12T02:38:58;8.60;99.90
22526;DHT22;11429;50.842;4.386;2022-11-12T02:41:24;8.60;99.90
22526;DHT22;11429;50.842;4.386;2022-11-12T02:43:50;8.60;99.90
22526;DHT22;11429;50.842;4.386;2022-11-12T02:46:16;8.60;99.90
22526;DHT22;11429;50.842;4.386;2022-11-12T02:48:41;8.60;99.90
22526;DHT22;11429;50.842;4.386;2022-11-12T02:51:07;8.70;99.90
22526;DHT22;11429;50.842;4.386;2022-11-12T02:53:33;8.80;99.90
22526;DHT22;11429;50.842;4.386;2022-11-12T02:55:59;8.90;99.90
22526;DHT22;11429;50.842;4.386;2022-11-12T02:58:25;8.80;99.90
22526;DHT22;11429;50.842;4.386;2022-11-12T03:00:51;8.80;99.90
22526;DHT22;11429;50.842;4.386;2022-11-12T03:03:17;8.70;99.90
22526;DHT22;11429;50.842;4.386;2022-11-12T03:05:44;8.60;99.90
22526;DHT22;11429;50.842;4.386;2022-11-12T03:08:10;8.50;99.90
22526;DHT22;11429;50.842;4.386;2022-11-12T03:10:37;8.50;99.90
22526;DHT22;11429;50.842;4.386;2022-11-12T03:13:04;8.60;99.90
22526;DHT22;11429;50.842;4.386;2022-11-12T03:15:31;8.60;99.90
22526;DHT22;11429;50.842;4.386;2022-11-12T03:17:58;8.80;99.90
22526;DHT22;11429;50.842;4.386;2022-11-12T03:20:24;8.80;99.90
22526;DHT22;11429;50.842;4.386;2022-11-12T03:22:59;8.80;99.90
22526;DHT22;11429;50.842;4.386;2022-11-12T03:25:27;8.80;99.90
22526;DHT22;11429;50.842;4.386;2022-11-12T03:30:23;9.20;99.90
22526;DHT22;11429;50.842;4.386;2022-11-12T03:32:48;9.30;99.90
22526;DHT22;11429;50.842;4.386;2022-11-12T03:35:14;9.10;99.90
22526;DHT22;11429;50.842;4.386;2022-11-12T03:37:40;9.00;99.90
22526;DHT22;11429;50.842;4.386;2022-11-12T03:40:06;9.20;99.90
22526;DHT22;11429;50.842;4.386;2022-11-12T03:42:31;9.20;99.90
22526;DHT22;11429;50.842;4.386;2022-11-12T03:44:57;9.10;99.90
22526;DHT22;11429;50.842;4.386;2022-11-12T03:47:23;9.00;99.90
22526;DHT22;11429;50.842;4.386;2022-11-12T03:49:48;9.00;99.90
22526;DHT22;11429;50.842;4.386;2022-11-12T03:52:14;9.00;99.90
22526;DHT22;11429;50.842;4.386;2022-11-12T03:54:39;9.10;99.90
22526;DHT22;11429;50.842;4.386;2022-11-12T03:57:05;9.10;99.90
22526;DHT22;11429;50.842;4.386;2022-11-12T03:59:31;9.20;99.90
22526;DHT22;11429;50.842;4.386;2022-11-12T04:01:56;9.30;99.90
22526;DHT22;11429;50.842;4.386;2022-11-12T04:04:22;9.30;99.90
22526;DHT22;11429;50.842;4.386;2022-11-12T04:06:48;9.20;99.90
22526;DHT22;11429;50.842;4.386;2022-11-12T04:09:32;9.20;99.90
22526;DHT22;11429;50.842;4.386;2022-11-12T04:11:57;9.30;99.90
22526;DHT22;11429;50.842;4.386;2022-11-12T04:14:43;9.20;99.90
22526;DHT22;11429;50.842;4.386;2022-11-12T04:17:09;8.90;99.90
22526;DHT22;11429;50.842;4.386;2022-11-12T04:19:53;8.60;99.90
22526;DHT22;11429;50.842;4.386;2022-11-12T04:22:37;8.70;99.90
22526;DHT22;11429;50.842;4.386;2022-11-12T04:25:03;8.80;99.90
22526;DHT22;11429;50.842;4.386;2022-11-12T04:27:47;9.00;99.90
22526;DHT22;11429;50.842;4.386;2022-11-12T04:30:13;9.10;99.90
22526;DHT22;11429;50.842;4.386;2022-11-12T04:32:51;9.10;99.90
22526;DHT22;11429;50.842;4.386;2022-11-12T04:35:20;9.10;99.90
22526;DHT22;11429;50.842;4.386;2022-11-12T04:37:47;9.10;99.90
22526;DHT22;11429;50.842;4.386;2022-11-12T04:40:19;9.10;99.90
22526;DHT22;11429;50.842;4.386;2022-11-12T04:43:04;8.80;99.90
22526;DHT22;11429;50.842;4.386;2022-11-12T04:45:51;8.80;99.90
22526;DHT22;11429;50.842;4.386;2022-11-12T04:48:18;9.00;99.90
22526;DHT22;11429;50.842;4.386;2022-11-12T04:50:47;9.00;99.90
22526;DHT22;11429;50.842;4.386;2022-11-12T04:53:14;8.70;99.90
22526;DHT22;11429;50.842;4.386;2022-11-12T04:55:40;8.80;99.90
22526;DHT22;11429;50.842;4.386;2022-11-12T04:58:06;8.60;99.90
22526;DHT22;11429;50.842;4.386;2022-11-12T05:00:31;8.60;99.90
22526;DHT22;11429;50.842;4.386;2022-11-12T05:02:57;8.70;99.90
22526;DHT22;11429;50.842;4.386;2022-11-12T05:05:23;8.80;99.90
22526;DHT22;11429;50.842;4.386;2022-11-12T05:07:48;8.90;99.90
22526;DHT22;11429;50.842;4.386;2022-11-12T05:10:14;8.90;99.90
22526;DHT22;11429;50.842;4.386;2022-11-12T05:12:41;8.80;99.90
22526;DHT22;11429;50.842;4.386;2022-11-12T05:15:08;8.60;99.90
22526;DHT22;11429;50.842;4.386;2022-11-12T05:17:33;8.50;99.90
22526;DHT22;11429;50.842;4.386;2022-11-12T05:19:59;8.40;99.90
22526;DHT22;11429;50.842;4.386;2022-11-12T05:22:25;8.40;99.90
22526;DHT22;11429;50.842;4.386;2022-11-12T05:24:50;8.50;99.90
22526;DHT22;11429;50.842;4.386;2022-11-12T05:27:18;8.60;99.90
22526;DHT22;11429;50.842;4.386;2022-11-12T05:29:45;8.70;99.90
22526;DHT22;11429;50.842;4.386;2022-11-12T05:32:14;8.80;99.90
22526;DHT22;11429;50.842;4.386;2022-11-12T05:34:40;8.70;99.90
22526;DHT22;11429;50.842;4.386;2022-11-12T05:37:07;8.90;99.90
22526;DHT22;11429;50.842;4.386;2022-11-12T05:39:33;9.00;99.90
22526;DHT22;11429;50.842;4.386;2022-11-12T05:41:59;9.00;99.90
22526;DHT22;11429;50.842;4.386;2022-11-12T05:44:25;9.00;99.90
22526;DHT22;11429;50.842;4.386;2022-11-12T05:46:51;9.00;99.90
22526;DHT22;11429;50.842;4.386;2022-11-12T05:49:17;8.90;99.90
22526;DHT22;11429;50.842;4.386;2022-11-12T05:51:43;8.60;99.90
22526;DHT22;11429;50.842;4.386;2022-11-12T05:54:09;8.20;99.90
22526;DHT22;11429;50.842;4.386;2022-11-12T05:56:35;8.00;99.90
22526;DHT22;11429;50.842;4.386;2022-11-12T05:59:07;8.00;99.90
22526;DHT22;11429;50.842;4.386;2022-11-12T06:01:33;8.00;99.90
22526;DHT22;11429;50.842;4.386;2022-11-12T06:04:04;8.10;99.90
22526;DHT22;11429;50.842;4.386;2022-11-12T06:06:30;8.30;99.90
22526;DHT22;11429;50.842;4.386;2022-11-12T06:08:56;8.30;99.90
22526;DHT22;11429;50.842;4.386;2022-11-12T06:11:21;8.30;99.90
22526;DHT22;11429;50.842;4.386;2022-11-12T06:13:47;8.40;99.90
22526;DHT22;11429;50.842;4.386;2022-11-12T06:16:12;8.50;99.90
22526;DHT22;11429;50.842;4.386;2022-11-12T06:18:39;8.60;99.90
22526;DHT22;11429;50.842;4.386;2022-11-12T06:21:07;8.50;99.90
22526;DHT22;11429;50.842;4.386;2022-11-12T06:23:51;8.70;99.90
22526;DHT22;11429;50.842;4.386;2022-11-12T06:26:17;8.60;99.90
22526;DHT22;11429;50.842;4.386;2022-11-12T06:28:44;8.60;99.90
22526;DHT22;11429;50.842;4.386;2022-11-12T06:31:10;8.60;99.90
22526;DHT22;11429;50.842;4.386;2022-11-12T06:33:35;8.70;99.90
22526;DHT22;11429;50.842;4.386;2022-11-12T06:36:04;8.60;99.90
22526;DHT22;11429;50.842;4.386;2022-11-12T06:38:34;8.80;99.90
22526;DHT22;11429;50.842;4.386;2022-11-12T06:41:00;8.80;99.90
22526;DHT22;11429;50.842;4.386;2022-11-12T06:43:28;8.90;99.90
22526;DHT22;11429;50.842;4.386;2022-11-12T06:45:58;8.70;99.90
22526;DHT22;11429;50.842;4.386;2022-11-12T06:48:24;8.60;99.90
22526;DHT22;11429;50.842;4.386;2022-11-12T06:50:50;8.50;99.90
22526;DHT22;11429;50.842;4.386;2022-11-12T06:53:15;8.40;99.90
22526;DHT22;11429;50.842;4.386;2022-11-12T06:55:41;8.20;99.90
22526;DHT22;11429;50.842;4.386;2022-11-12T06:58:07;8.00;99.90
22526;DHT22;11429;50.842;4.386;2022-11-12T07:00:32;8.00;99.90
22526;DHT22;11429;50.842;4.386;2022-11-12T07:02:58;8.10;99.90
22526;DHT22;11429;50.842;4.386;2022-11-12T07:05:24;8.30;99.90
22526;DHT22;11429;50.842;4.386;2022-11-12T07:07:50;8.40;99.90
22526;DHT22;11429;50.842;4.386;2022-11-12T07:10:17;8.40;99.90
22526;DHT22;11429;50.842;4.386;2022-11-12T07:12:43;8.40;99.90
22526;DHT22;11429;50.842;4.386;2022-11-12T07:15:09;8.50;99.90
22526;DHT22;11429;50.842;4.386;2022-11-12T07:17:37;8.60;99.90
22526;DHT22;11429;50.842;4.386;2022-11-12T07:20:05;8.80;99.90
22526;DHT22;11429;50.842;4.386;2022-11-12T07:22:32;8.80;99.90
22526;DHT22;11429;50.842;4.386;2022-11-12T07:24:58;8.60;99.90
22526;DHT22;11429;50.842;4.386;2022-11-12T07:27:24;8.20;99.90
22526;DHT22;11429;50.842;4.386;2022-11-12T07:29:50;8.00;99.90
22526;DHT22;11429;50.842;4.386;2022-11-12T07:32:15;8.10;99.90
22526;DHT22;11429;50.842;4.386;2022-11-12T07:34:41;8.20;99.90
22526;DHT22;11429;50.842;4.386;2022-11-12T07:37:07;8.10;99.90
22526;DHT22;11429;50.842;4.386;2022-11-12T07:39:32;8.10;99.90
22526;DHT22;11429;50.842;4.386;2022-11-12T07:41:58;8.20;99.90
22526;DHT22;11429;50.842;4.386;2022-11-12T07:44:24;8.30;99.90
22526;DHT22;11429;50.842;4.386;2022-11-12T07:46:49;8.40;99.90
22526;DHT22;11429;50.842;4.386;2022-11-12T07:49:15;8.60;99.90
22526;DHT22;11429;50.842;4.386;2022-11-12T07:51:41;8.60;99.90
22526;DHT22;11429;50.842;4.386;2022-11-12T07:54:07;8.70;99.90
22526;DHT22;11429;50.842;4.386;2022-11-12T07:56:32;8.80;99.90
22526;DHT22;11429;50.842;4.386;2022-11-12T07:58:58;8.80;99.90
22526;DHT22;11429;50.842;4.386;2022-11-12T08:01:36;8.80;99.90
22526;DHT22;11429;50.842;4.386;2022-11-12T08:04:04;8.80;99.90
22526;DHT22;11429;50.842;4.386;2022-11-12T08:06:31;8.90;99.90
22526;DHT22;11429;50.842;4.386;2022-11-12T08:08:59;9.00;99.90
22526;DHT22;11429;50.842;4.386;2022-11-12T08:11:25;9.10;99.90
22526;DHT22;11429;50.842;4.386;2022-11-12T08:13:51;9.20;99.90
22526;DHT22;11429;50.842;4.386;2022-11-12T08:16:17;9.30;99.90
22526;DHT22;11429;50.842;4.386;2022-11-12T08:18:44;9.40;99.90
22526;DHT22;11429;50.842;4.386;2022-11-12T08:21:16;9.50;99.90
22526;DHT22;11429;50.842;4.386;2022-11-12T08:23:43;9.60;99.90
22526;DHT22;11429;50.842;4.386;2022-11-12T08:26:11;9.60;99.90
22526;DHT22;11429;50.842;4.386;2022-11-12T08:28:38;9.60;99.90
22526;DHT22;11429;50.842;4.386;2022-11-12T08:31:05;9.60;99.90
22526;DHT22;11429;50.842;4.386;2022-11-12T08:33:32;9.70;99.90
22526;DHT22;11429;50.842;4.386;2022-11-12T08:36:01;9.80;99.90
22526;DHT22;11429;50.842;4.386;2022-11-12T08:38:27;9.80;99.90
22526;DHT22;11429;50.842;4.386;2022-11-12T08:40:52;9.80;99.90
22526;DHT22;11429;50.842;4.386;2022-11-12T08:43:18;9.80;99.90
22526;DHT22;11429;50.842;4.386;2022-11-12T08:45:44;9.80;99.90
22526;DHT22;11429;50.842;4.386;2022-11-12T08:48:13;9.80;99.90
22526;DHT22;11429;50.842;4.386;2022-11-12T08:50:39;9.80;99.90
22526;DHT22;11429;50.842;4.386;2022-11-12T08:53:11;9.80;99.90
22526;DHT22;11429;50.842;4.386;2022-11-12T08:55:37;9.90;99.90
22526;DHT22;11429;50.842;4.386;2022-11-12T08:58:03;10.10;99.90
22526;DHT22;11429;50.842;4.386;2022-11-12T09:00:30;10.20;99.90
22526;DHT22;11429;50.842;4.386;2022-11-12T09:02:59;10.30;99.90
22526;DHT22;11429;50.842;4.386;2022-11-12T09:05:25;10.50;99.90
22526;DHT22;11429;50.842;4.386;2022-11-12T09:07:58;10.70;99.90
22526;DHT22;11429;50.842;4.386;2022-11-12T09:10:25;10.90;99.90
22526;DHT22;11429;50.842;4.386;2022-11-12T09:12:51;11.00;99.90
22526;DHT22;11429;50.842;4.386;2022-11-12T09:15:17;11.20;99.90
22526;DHT22;11429;50.842;4.386;2022-11-12T09:17:43;11.30;99.90
22526;DHT22;11429;50.842;4.386;2022-11-12T09:20:09;11.40;99.90
22526;DHT22;11429;50.842;4.386;2022-11-12T09:22:34;11.40;99.90
22526;DHT22;11429;50.842;4.386;2022-11-12T09:25:00;11.50;99.90
22526;DHT22;11429;50.842;4.386;2022-11-12T09:27:26;11.60;99.90
22526;DHT22;11429;50.842;4.386;2022-11-12T09:29:52;11.80;99.90
22526;DHT22;11429;50.842;4.386;2022-11-12T09:32:18;11.90;99.90
22526;DHT22;11429;50.842;4.386;2022-11-12T09:34:47;12.20;99.90
22526;DHT22;11429;50.842;4.386;2022-11-12T09:37:13;12.40;99.90
22526;DHT22;11429;50.842;4.386;2022-11-12T09:39:40;12.40;99.90
22526;DHT22;11429;50.842;4.386;2022-11-12T09:42:08;12.50;99.90
22526;DHT22;11429;50.842;4.386;2022-11-12T09:44:38;12.90;99.90
22526;DHT22;11429;50.842;4.386;2022-11-12T09:47:19;13.20;99.90
22526;DHT22;11429;50.842;4.386;2022-11-12T09:50:19;13.40;99.90
22526;DHT22;11429;50.842;4.386;2022-11-12T09:52:48;13.50;99.90
22526;DHT22;11429;50.842;4.386;2022-11-12T09:55:51;13.90;99.90
22526;DHT22;11429;50.842;4.386;2022-11-12T09:58:11;14.40;99.90
22526;DHT22;11429;50.842;4.386;2022-11-12T10:00:53;15.00;99.90
22526;DHT22;11429;50.842;4.386;2022-11-12T10:03:31;15.30;99.90
22526;DHT22;11429;50.842;4.386;2022-11-12T10:06:05;14.90;99.90
22526;DHT22;11429;50.842;4.386;2022-11-12T10:09:06;15.50;99.90
22526;DHT22;11429;50.842;4.386;2022-11-12T10:11:41;15.70;99.90
22526;DHT22;11429;50.842;4.386;2022-11-12T10:20:34;16.00;99.90
22526;DHT22;11429;50.842;4.386;2022-11-12T10:25:28;15.80;99.90
22526;DHT22;11429;50.842;4.386;2022-11-12T10:27:54;15.40;99.90
22526;DHT22;11429;50.842;4.386;2022-11-12T10:30:23;14.70;99.90
22526;DHT22;11429;50.842;4.386;2022-11-12T10:32:50;14.30;99.90
22526;DHT22;11429;50.842;4.386;2022-11-12T10:35:19;14.00;99.90
22526;DHT22;11429;50.842;4.386;2022-11-12T10:38:01;13.90;99.90
22526;DHT22;11429;50.842;4.386;2022-11-12T10:45:44;14.00;99.90
22526;DHT22;11429;50.842;4.386;2022-11-12T10:48:24;14.70;99.90
22526;DHT22;11429;50.842;4.386;2022-11-12T10:50:51;15.10;99.90
22526;DHT22;11429;50.842;4.386;2022-11-12T10:53:36;15.40;99.90
22526;DHT22;11429;50.842;4.386;2022-11-12T10:56:04;15.60;99.90
22526;DHT22;11429;50.842;4.386;2022-11-12T11:01:42;16.40;99.90
22526;DHT22;11429;50.842;4.386;2022-11-12T11:04:30;16.60;99.90
22526;DHT22;11429;50.842;4.386;2022-11-12T11:07:31;17.60;99.90
22526;DHT22;11429;50.842;4.386;2022-11-12T11:09:59;18.10;99.90
22526;DHT22;11429;50.842;4.386;2022-11-12T11:15:27;17.20;99.90
22526;DHT22;11429;50.842;4.386;2022-11-12T11:17:54;18.00;99.90
22526;DHT22;11429;50.842;4.386;2022-11-12T11:20:25;19.80;99.90
22526;DHT22;11429;50.842;4.386;2022-11-12T11:25:49;18.80;99.90
22526;DHT22;11429;50.842;4.386;2022-11-12T11:28:20;19.50;99.90
22526;DHT22;11429;50.842;4.386;2022-11-12T11:31:04;20.00;99.90
22526;DHT22;11429;50.842;4.386;2022-11-12T11:33:43;19.80;99.90
22526;DHT22;11429;50.842;4.386;2022-11-12T11:36:27;20.60;99.90
22526;DHT22;11429;50.842;4.386;2022-11-12T11:39:21;19.40;99.90
22526;DHT22;11429;50.842;4.386;2022-11-12T11:44:44;19.00;99.90
22526;DHT22;11429;50.842;4.386;2022-11-12T11:47:42;18.90;99.90
22526;DHT22;11429;50.842;4.386;2022-11-12T11:50:27;19.40;99.90
22526;DHT22;11429;50.842;4.386;2022-11-12T12:01:33;18.20;99.90
22526;DHT22;11429;50.842;4.386;2022-11-12T12:07:13;17.80;99.90
22526;DHT22;11429;50.842;4.386;2022-11-12T12:10:21;18.00;99.90
22526;DHT22;11429;50.842;4.386;2022-11-12T12:16:25;18.20;99.90
22526;DHT22;11429;50.842;4.386;2022-11-12T12:21:24;18.10;99.90
22526;DHT22;11429;50.842;4.386;2022-11-12T12:24:00;18.30;99.90
22526;DHT22;11429;50.842;4.386;2022-11-12T12:26:43;17.60;99.90
22526;DHT22;11429;50.842;4.386;2022-11-12T12:29:42;17.30;99.90
22526;DHT22;11429;50.842;4.386;2022-11-12T12:35:06;17.70;99.90
22526;DHT22;11429;50.842;4.386;2022-11-12T12:43:44;17.20;99.90
22526;DHT22;11429;50.842;4.386;2022-11-12T12:46:10;17.10;99.90
22526;DHT22;11429;50.842;4.386;2022-11-12T12:48:39;17.30;99.90
22526;DHT22;11429;50.842;4.386;2022-11-12T12:51:06;17.40;99.90
22526;DHT22;11429;50.842;4.386;2022-11-12T12:53:34;17.20;99.90
22526;DHT22;11429;50.842;4.386;2022-11-12T12:56:05;17.10;99.90
22526;DHT22;11429;50.842;4.386;2022-11-12T13:01:29;16.90;99.90
22526;DHT22;11429;50.842;4.386;2022-11-12T13:04:04;16.60;99.90
22526;DHT22;11429;50.842;4.386;2022-11-12T13:40:51;16.80;99.90
22526;DHT22;11429;50.842;4.386;2022-11-12T13:43:39;16.80;99.90
22526;DHT22;11429;50.842;4.386;2022-11-12T13:48:43;16.80;99.90
22526;DHT22;11429;50.842;4.386;2022-11-12T13:51:24;16.90;99.90
22526;DHT22;11429;50.842;4.386;2022-11-12T13:53:51;16.80;99.90
22526;DHT22;11429;50.842;4.386;2022-11-12T13:56:31;16.80;99.90
22526;DHT22;11429;50.842;4.386;2022-11-12T13:59:14;16.80;99.90
22526;DHT22;11429;50.842;4.386;2022-11-12T14:01:41;16.90;99.90
22526;DHT22;11429;50.842;4.386;2022-11-12T14:04:10;16.90;99.90
22526;DHT22;11429;50.842;4.386;2022-11-12T14:06:50;16.90;99.90
22526;DHT22;11429;50.842;4.386;2022-11-12T14:15:19;16.90;99.90
22526;DHT22;11429;50.842;4.386;2022-11-12T14:20:34;17.30;99.90
22526;DHT22;11429;50.842;4.386;2022-11-12T14:23:12;17.60;99.90
22526;DHT22;11429;50.842;4.386;2022-11-12T14:26:04;17.30;99.90
22526;DHT22;11429;50.842;4.386;2022-11-12T14:28:34;17.00;99.90
22526;DHT22;11429;50.842;4.386;2022-11-12T14:31:02;16.80;99.90
22526;DHT22;11429;50.842;4.386;2022-11-12T14:33:29;16.80;99.90
22526;DHT22;11429;50.842;4.386;2022-11-12T14:36:10;16.80;99.90
22526;DHT22;11429;50.842;4.386;2022-11-12T14:38:41;16.80;99.90
22526;DHT22;11429;50.842;4.386;2022-11-12T14:43:45;16.70;99.90
22526;DHT22;11429;50.842;4.386;2022-11-12T14:46:28;16.70;99.90
22526;DHT22;11429;50.842;4.386;2022-11-12T14:49:10;16.70;99.90
22526;DHT22;11429;50.842;4.386;2022-11-12T14:51:45;16.60;99.90
22526;DHT22;11429;50.842;4.386;2022-11-12T14:54:39;16.50;99.90
22526;DHT22;11429;50.842;4.386;2022-11-12T14:57:06;16.40;99.90
22526;DHT22;11429;50.842;4.386;2022-11-12T14:59:35;16.40;99.90
22526;DHT22;11429;50.842;4.386;2022-11-12T15:02:14;16.40;99.90
22526;DHT22;11429;50.842;4.386;2022-11-12T15:04:50;16.40;99.90
22526;DHT22;11429;50.842;4.386;2022-11-12T15:07:33;16.20;99.90
22526;DHT22;11429;50.842;4.386;2022-11-12T15:09:59;16.20;99.90
22526;DHT22;11429;50.842;4.386;2022-11-12T15:12:28;16.10;99.90
22526;DHT22;11429;50.842;4.386;2022-11-12T15:15:07;16.10;99.90
22526;DHT22;11429;50.842;4.386;2022-11-12T15:17:33;16.10;99.90
22526;DHT22;11429;50.842;4.386;2022-11-12T15:20:05;16.00;99.90
22526;DHT22;11429;50.842;4.386;2022-11-12T15:22:36;16.10;99.90
22526;DHT22;11429;50.842;4.386;2022-11-12T15:25:22;16.20;99.90
22526;DHT22;11429;50.842;4.386;2022-11-12T15:27:48;16.10;99.90
22526;DHT22;11429;50.842;4.386;2022-11-12T15:30:21;16.10;99.90
22526;DHT22;11429;50.842;4.386;2022-11-12T15:35:37;16.20;99.90
22526;DHT22;11429;50.842;4.386;2022-11-12T15:38:06;16.20;99.90
22526;DHT22;11429;50.842;4.386;2022-11-12T15:40:43;16.20;99.90
22526;DHT22;11429;50.842;4.386;2022-11-12T15:43:15;16.10;99.90
22526;DHT22;11429;50.842;4.386;2022-11-12T15:45:42;16.10;99.90
22526;DHT22;11429;50.842;4.386;2022-11-12T15:48:10;16.00;99.90
22526;DHT22;11429;50.842;4.386;2022-11-12T15:50:36;16.00;99.90
22526;DHT22;11429;50.842;4.386;2022-11-12T15:53:03;15.90;99.90
22526;DHT22;11429;50.842;4.386;2022-11-12T15:55:30;15.70;99.90
22526;DHT22;11429;50.842;4.386;2022-11-12T15:57:56;15.60;99.90
22526;DHT22;11429;50.842;4.386;2022-11-12T16:00:33;15.50;99.90
22526;DHT22;11429;50.842;4.386;2022-11-12T16:05:37;15.20;99.90
22526;DHT22;11429;50.842;4.386;2022-11-12T16:08:03;15.10;99.90
22526;DHT22;11429;50.842;4.386;2022-11-12T16:10:29;15.10;99.90
22526;DHT22;11429;50.842;4.386;2022-11-12T16:12:58;15.10;99.90
22526;DHT22;11429;50.842;4.386;2022-11-12T16:15:24;14.80;99.90
22526;DHT22;11429;50.842;4.386;2022-11-12T16:17:51;14.70;99.90
22526;DHT22;11429;50.842;4.386;2022-11-12T16:20:20;14.70;99.90
22526;DHT22;11429;50.842;4.386;2022-11-12T16:22:47;14.60;99.90
22526;DHT22;11429;50.842;4.386;2022-11-12T16:25:13;14.60;99.90
22526;DHT22;11429;50.842;4.386;2022-11-12T16:27:39;14.50;99.90
22526;DHT22;11429;50.842;4.386;2022-11-12T16:30:15;14.50;99.90
22526;DHT22;11429;50.842;4.386;2022-11-12T16:32:41;14.70;99.90
22526;DHT22;11429;50.842;4.386;2022-11-12T16:35:07;14.70;99.90
22526;DHT22;11429;50.842;4.386;2022-11-12T16:37:33;14.60;99.90
22526;DHT22;11429;50.842;4.386;2022-11-12T16:39:58;14.60;99.90
22526;DHT22;11429;50.842;4.386;2022-11-12T16:42:24;14.60;99.90
22526;DHT22;11429;50.842;4.386;2022-11-12T16:44:50;14.60;99.90
22526;DHT22;11429;50.842;4.386;2022-11-12T16:47:15;14.60;99.90
22526;DHT22;11429;50.842;4.386;2022-11-12T16:49:41;14.50;99.90
22526;DHT22;11429;50.842;4.386;2022-11-12T16:52:10;14.40;99.90
22526;DHT22;11429;50.842;4.386;2022-11-12T16:54:36;14.30;99.90
22526;DHT22;11429;50.842;4.386;2022-11-12T16:57:03;14.20;99.90
22526;DHT22;11429;50.842;4.386;2022-11-12T16:59:28;14.30;99.90
22526;DHT22;11429;50.842;4.386;2022-11-12T17:01:54;14.20;99.90
22526;DHT22;11429;50.842;4.386;2022-11-12T17:04:22;14.20;99.90
22526;DHT22;11429;50.842;4.386;2022-11-12T17:06:47;14.00;99.90
22526;DHT22;11429;50.842;4.386;2022-11-12T17:09:15;14.00;99.90
22526;DHT22;11429;50.842;4.386;2022-11-12T17:11:41;14.00;99.90
22526;DHT22;11429;50.842;4.386;2022-11-12T17:14:07;14.00;99.90
22526;DHT22;11429;50.842;4.386;2022-11-12T17:16:33;14.00;99.90
22526;DHT22;11429;50.842;4.386;2022-11-12T17:18:59;13.90;99.90
22526;DHT22;11429;50.842;4.386;2022-11-12T17:21:28;13.90;99.90
22526;DHT22;11429;50.842;4.386;2022-11-12T17:23:54;13.80;99.90
22526;DHT22;11429;50.842;4.386;2022-11-12T17:26:22;13.70;99.90
22526;DHT22;11429;50.842;4.386;2022-11-12T17:28:48;13.70;99.90
22526;DHT22;11429;50.842;4.386;2022-11-12T17:31:21;13.70;99.90
22526;DHT22;11429;50.842;4.386;2022-11-12T17:33:51;13.80;99.90
22526;DHT22;11429;50.842;4.386;2022-11-12T17:36:22;13.80;99.90
22526;DHT22;11429;50.842;4.386;2022-11-12T17:38:53;13.50;99.90
22526;DHT22;11429;50.842;4.386;2022-11-12T17:41:19;13.50;99.90
22526;DHT22;11429;50.842;4.386;2022-11-12T17:43:45;13.60;99.90
22526;DHT22;11429;50.842;4.386;2022-11-12T17:46:12;13.50;99.90
22526;DHT22;11429;50.842;4.386;2022-11-12T17:48:39;13.50;99.90
22526;DHT22;11429;50.842;4.386;2022-11-12T17:51:16;13.60;99.90